Dover Highway — 7JKA — position and weather

sailwx.info

Track history (hours):
 
Tides and Currents Weather Stations Pressure Air Temp Water Temp Dewpoint Dewpoint Depression Visibility Wind Speed Wind Dir Waves Ship Positions

Dover Highway

Last reported at 2018-Jun-14 07:23 UTC. Time now 2018-Jun-18 02:12 UTC.
Position N 31°06' E 122°20'.

Length 199 m; draft 8.2 m.

Type: Cargo ship. MMSI: 432824000.

Date/timePositionNaut miles runAvg speedWind from/ knotsBaromVisibWave heightAir tempDewpointWater temp
2018-Jun-14 07:23N 31°06' E 122°20'1114.2
2018-Jun-14 06:38N 31°12' E 122°09'314.8
2018-Jun-14 06:24N 31°14' E 122°06'615.0
2018-Jun-14 06:00N 31°15' E 121°59'914.0
2018-Jun-14 05:22N 31°17' E 121°49'5 0.3
2018-Jun-13 14:33N 31°19' E 121°44'0 8.9
2018-Jun-13 14:30N 31°19' E 121°44'910.2
2018-Jun-13 13:39N 31°16' E 121°54'410.7
2018-Jun-13 13:15N 31°15' E 121°59'411.9
2018-Jun-13 12:55N 31°14' E 122°03'811.4
2018-Jun-13 12:14N 31°11' E 122°11'310.4
2018-Jun-13 11:59N 31°09' E 122°13'611.0
2018-Jun-13 11:29N 31°06' E 122°19'611.5
2018-Jun-13 10:59N 31°07' E 122°26'5 9.3
2018-Jun-13 10:30N 31°08' E 122°31'3 6.5
2018-Jun-13 10:00N 31°07' E 122°35'3 7.1
2018-Jun-13 09:30N 31°08' E 122°39'5 8.9
2018-Jun-13 08:59N 31°07' E 122°44'814.6
2018-Jun-13 08:28N 31°06' E 122°53'716.1
2018-Jun-13 08:00N 31°06' E 123°01'816.0
2018-Jun-13 07:30N 31°06' E 123°11'816.0
2018-Jun-13 07:00N 31°06' E 123°20'915.9
2018-Jun-13 06:28N 31°06' E 123°30'1115.3
2018-Jun-13 05:45N 31°06' E 123°43'7215.4
2018-Jun-13 01:04N 31°06' E 125°07'118.0
2018-Jun-13 01:00N 31°06' E 125°09'  
Track history (hours):
 
Tides and Currents Weather Stations Pressure Air Temp Water Temp Dewpoint Dewpoint Depression Visibility Wind Speed Wind Dir Waves Ship Positions

Dover Highway

Last reported at 2018-Jun-14 07:23 UTC. Time now 2018-Jun-18 02:12 UTC.
Position N 31°06' E 122°20'.

Length 199 m; draft 8.2 m.

Type: Cargo ship. MMSI: 432824000.

Date/timePositionNaut miles runAvg speedWind from/ knotsBaromVisibWave heightAir tempDewpointWater temp
2018-Jun-14 07:23N 31°06' E 122°20'1114.2
2018-Jun-14 06:38N 31°12' E 122°09'314.8
2018-Jun-14 06:24N 31°14' E 122°06'615.0
2018-Jun-14 06:00N 31°15' E 121°59'914.0
2018-Jun-14 05:22N 31°17' E 121°49'5 0.3
2018-Jun-13 14:33N 31°19' E 121°44'0 8.9
2018-Jun-13 14:30N 31°19' E 121°44'910.2
2018-Jun-13 13:39N 31°16' E 121°54'410.7
2018-Jun-13 13:15N 31°15' E 121°59'411.9
2018-Jun-13 12:55N 31°14' E 122°03'811.4
2018-Jun-13 12:14N 31°11' E 122°11'310.4
2018-Jun-13 11:59N 31°09' E 122°13'611.0
2018-Jun-13 11:29N 31°06' E 122°19'611.5
2018-Jun-13 10:59N 31°07' E 122°26'5 9.3
2018-Jun-13 10:30N 31°08' E 122°31'3 6.5
2018-Jun-13 10:00N 31°07' E 122°35'3 7.1
2018-Jun-13 09:30N 31°08' E 122°39'5 8.9
2018-Jun-13 08:59N 31°07' E 122°44'814.6
2018-Jun-13 08:28N 31°06' E 122°53'716.1
2018-Jun-13 08:00N 31°06' E 123°01'816.0
2018-Jun-13 07:30N 31°06' E 123°11'816.0
2018-Jun-13 07:00N 31°06' E 123°20'915.9
2018-Jun-13 06:28N 31°06' E 123°30'1115.3
2018-Jun-13 05:45N 31°06' E 123°43'7215.4
2018-Jun-13 01:04N 31°06' E 125°07'118.0
2018-Jun-13 01:00N 31°06' E 125°09'  

Dump ship's entire track history